Time;durP1;ratioP1;P1;durP2;ratioP2;P2;SDS_P1;SDS_P2;PMS_P1;PMS_P2;Temp;Humidity;BMP_temperature;BMP_pressure;BME280_temperature;BME280_humidity;BME280_pressure;Samples;Min_cycle;Max_cycle;Signal;HPM_P1;HPM_P2
2024/03/22 00:01:14;;;;;;;9.07;5.38;;;22.20;52.30;;;;;;5071187;28;20066;-68
2024/03/22 00:03:39;;;;;;;7.72;5.32;;;22.20;52.30;;;;;;5070989;28;20034;-68
2024/03/22 00:06:05;;;;;;;7.65;5.18;;;22.20;52.40;;;;;;5051930;28;20388;-68
2024/03/22 00:08:31;;;;;;;6.82;4.90;;;22.20;52.40;;;;;;5070950;28;20021;-68
2024/03/22 00:10:56;;;;;;;6.70;4.80;;;22.10;52.30;;;;;;5070987;28;20036;-68
2024/03/22 00:13:22;;;;;;;6.53;4.88;;;22.10;52.30;;;;;;5070910;28;20041;-68
2024/03/22 00:15:47;;;;;;;7.80;5.13;;;22.10;52.30;;;;;;5071190;28;20067;-68
2024/03/22 00:18:13;;;;;;;7.07;5.25;;;22.10;52.30;;;;;;5071043;28;20041;-69
2024/03/22 00:20:39;;;;;;;7.60;5.15;;;22.10;52.30;;;;;;5070202;28;20033;-67
2024/03/22 00:23:04;;;;;;;6.95;5.10;;;22.10;52.30;;;;;;5070390;28;20493;-68
2024/03/22 00:25:30;;;;;;;7.18;5.07;;;22.10;52.30;;;;;;5070860;28;20043;-68
2024/03/22 00:27:56;;;;;;;6.55;5.00;;;22.10;52.30;;;;;;5070305;28;20033;-68
2024/03/22 00:30:22;;;;;;;9.48;5.20;;;22.10;52.30;;;;;;5070701;28;20097;-68
2024/03/22 00:32:47;;;;;;;6.90;4.78;;;22.10;52.30;;;;;;5070744;28;20036;-69
2024/03/22 00:35:13;;;;;;;6.10;4.78;;;22.10;52.30;;;;;;5070646;28;20036;-67
2024/03/22 00:37:39;;;;;;;7.53;5.05;;;22.10;52.30;;;;;;5069325;28;20113;-69
2024/03/22 00:40:05;;;;;;;6.43;4.88;;;22.10;52.40;;;;;;5070439;28;20031;-68
2024/03/22 00:42:31;;;;;;;6.50;4.85;;;22.10;52.30;;;;;;5070338;28;20040;-68
2024/03/22 00:44:57;;;;;;;7.05;4.57;;;22.10;52.30;;;;;;5059876;28;20025;-68
2024/03/22 00:47:23;;;;;;;6.47;4.75;;;22.10;52.40;;;;;;5070389;28;20480;-68
2024/03/22 00:49:49;;;;;;;6.15;4.40;;;22.10;52.30;;;;;;5070422;28;20026;-68
2024/03/22 00:52:14;;;;;;;6.93;4.95;;;22.10;52.30;;;;;;5069215;28;20131;-68
2024/03/22 00:54:40;;;;;;;6.82;4.65;;;22.00;52.30;;;;;;5070395;28;20499;-68
2024/03/22 00:57:06;;;;;;;7.05;4.70;;;22.00;52.30;;;;;;5070198;28;20510;-68
2024/03/22 00:59:32;;;;;;;6.70;4.68;;;22.00;52.30;;;;;;5069495;28;20373;-68
2024/03/22 01:01:58;;;;;;;6.25;4.32;;;22.00;52.30;;;;;;5070337;28;20031;-68
2024/03/22 01:04:23;;;;;;;5.93;4.38;;;22.00;52.30;;;;;;5070292;28;20020;-68
2024/03/22 01:06:49;;;;;;;6.93;4.75;;;22.00;52.30;;;;;;5069093;28;20028;-68
2024/03/22 01:09:15;;;;;;;5.50;4.40;;;22.00;52.30;;;;;;5070145;28;20039;-68
2024/03/22 01:11:40;;;;;;;6.03;4.28;;;22.00;52.30;;;;;;5069824;28;20438;-68
2024/03/22 01:14:06;;;;;;;5.55;4.00;;;22.00;52.30;;;;;;5070057;28;20044;-68
2024/03/22 01:16:32;;;;;;;6.40;4.30;;;22.00;52.30;;;;;;5070121;28;20024;-68
2024/03/22 01:18:58;;;;;;;6.22;4.20;;;22.00;52.40;;;;;;5069184;28;20369;-68
2024/03/22 01:21:25;;;;;;;5.80;4.15;;;21.90;52.30;;;;;;5068796;28;20031;-68
2024/03/22 01:23:54;;;;;;;6.15;4.38;;;22.00;52.40;;;;;;5070060;28;20033;-65
2024/03/22 01:26:20;;;;;;;5.90;4.35;;;21.90;52.30;;;;;;5069841;28;20028;-64
2024/03/22 01:28:46;;;;;;;5.50;4.25;;;21.90;52.30;;;;;;5069633;28;20372;-65
2024/03/22 01:31:12;;;;;;;4.80;3.83;;;21.90;52.30;;;;;;5070611;28;20396;-64
2024/03/22 01:33:37;;;;;;;5.60;3.92;;;21.90;52.30;;;;;;5069890;28;20205;-65
2024/03/22 01:36:05;;;;;;;5.80;4.15;;;21.90;52.30;;;;;;5069956;28;20036;-65
2024/03/22 01:38:31;;;;;;;6.43;3.97;;;21.90;52.30;;;;;;5068346;28;20033;-65
2024/03/22 01:40:57;;;;;;;6.70;4.35;;;21.90;52.30;;;;;;5069748;28;20503;-66
2024/03/22 01:43:22;;;;;;;5.47;3.92;;;21.90;52.30;;;;;;5069677;28;20017;-65
2024/03/22 01:45:48;;;;;;;5.13;3.85;;;21.90;52.40;;;;;;5069949;28;20029;-66
2024/03/22 01:48:14;;;;;;;5.30;3.70;;;21.90;52.30;;;;;;5069775;28;20609;-65
2024/03/22 01:50:40;;;;;;;5.93;3.90;;;21.90;52.90;;;;;;5069814;28;20425;-66
2024/03/22 01:53:06;;;;;;;5.45;3.67;;;21.90;52.40;;;;;;5069046;28;20486;-65
2024/03/22 01:55:32;;;;;;;5.55;3.83;;;21.90;52.40;;;;;;5069900;28;20036;-65
2024/03/22 01:57:58;;;;;;;6.13;3.78;;;21.90;52.30;;;;;;5068966;28;20131;-66
2024/03/22 02:00:23;;;;;;;5.25;3.97;;;21.90;52.40;;;;;;5069463;28;20400;-65
2024/03/22 02:02:49;;;;;;;5.40;3.80;;;21.80;52.30;;;;;;5069598;28;20032;-65
2024/03/22 02:05:16;;;;;;;4.93;3.75;;;21.90;52.40;;;;;;5069654;28;20024;-65
2024/03/22 02:07:42;;;;;;;4.45;3.10;;;21.80;52.30;;;;;;5068581;28;20357;-66
2024/03/22 02:10:10;;;;;;;4.90;3.50;;;21.80;52.30;;;;;;5069415;28;20392;-66
2024/03/22 02:12:37;;;;;;;5.25;3.83;;;21.80;52.30;;;;;;5069480;28;20024;-65
2024/03/22 02:15:03;;;;;;;4.60;3.60;;;21.90;52.40;;;;;;5069530;28;20038;-66
2024/03/22 02:17:28;;;;;;;4.53;3.58;;;21.80;52.30;;;;;;5069439;28;20029;-65
2024/03/22 02:19:54;;;;;;;4.68;3.47;;;21.80;52.30;;;;;;5069730;28;20086;-65
2024/03/22 02:22:19;;;;;;;4.78;3.53;;;21.80;52.40;;;;;;5068458;28;20451;-66
2024/03/22 02:24:45;;;;;;;5.03;3.85;;;21.80;52.40;;;;;;5069259;28;20033;-66
2024/03/22 02:27:11;;;;;;;5.50;3.88;;;21.80;52.40;;;;;;5069265;28;20028;-66
2024/03/22 02:29:36;;;;;;;4.47;3.63;;;21.80;52.40;;;;;;5070154;28;20029;-66
2024/03/22 02:32:03;;;;;;;5.00;3.60;;;21.80;52.40;;;;;;5072925;28;20341;-66
2024/03/22 02:34:29;;;;;;;4.22;3.30;;;21.80;52.40;;;;;;5073131;28;20025;-68
2024/03/22 02:36:54;;;;;;;4.50;3.42;;;21.80;52.40;;;;;;5053300;28;20073;-68
2024/03/22 02:39:20;;;;;;;5.40;3.92;;;21.80;52.40;;;;;;5072597;28;20035;-68
2024/03/22 02:41:45;;;;;;;4.57;3.50;;;21.80;52.40;;;;;;5072755;28;20471;-68
2024/03/22 02:44:11;;;;;;;4.35;3.20;;;21.80;52.40;;;;;;5072490;28;20048;-64
2024/03/22 02:46:37;;;;;;;5.28;3.60;;;21.70;52.30;;;;;;5072879;28;20025;-63
2024/03/22 02:49:02;;;;;;;4.68;3.50;;;21.70;52.90;;;;;;5072743;28;20043;-64
2024/03/22 02:51:28;;;;;;;4.40;3.30;;;21.80;52.40;;;;;;5072529;28;20453;-65
2024/03/22 02:53:53;;;;;;;4.70;3.50;;;21.80;52.40;;;;;;5071029;28;20046;-64
2024/03/22 02:56:19;;;;;;;4.82;3.58;;;21.70;52.40;;;;;;5072472;28;20472;-64
2024/03/22 02:58:44;;;;;;;4.90;3.45;;;21.70;52.30;;;;;;5054195;28;20134;-64
2024/03/22 03:01:10;;;;;;;4.25;3.22;;;21.70;52.30;;;;;;5072475;28;20369;-64
2024/03/22 03:03:36;;;;;;;6.88;3.53;;;21.70;52.30;;;;;;5072495;28;20032;-64
2024/03/22 03:06:01;;;;;;;4.47;3.30;;;21.70;52.40;;;;;;5072429;28;20028;-64
2024/03/22 03:08:27;;;;;;;4.53;3.33;;;21.70;52.40;;;;;;5071083;28;20055;-64
2024/03/22 03:10:53;;;;;;;5.13;3.55;;;21.70;52.30;;;;;;5072285;28;20150;-64
2024/03/22 03:13:18;;;;;;;5.30;3.47;;;21.70;52.40;;;;;;5071747;28;20468;-64
2024/03/22 03:15:44;;;;;;;3.95;3.10;;;21.70;52.40;;;;;;5060948;28;20028;-65
2024/03/22 03:18:09;;;;;;;4.70;3.13;;;21.70;52.40;;;;;;5071896;28;20028;-64
2024/03/22 03:20:35;;;;;;;4.97;3.22;;;21.70;52.40;;;;;;5072006;28;20028;-65
2024/03/22 03:23:01;;;;;;;4.70;3.35;;;21.70;52.40;;;;;;5070882;28;20035;-65
2024/03/22 03:25:27;;;;;;;4.53;3.40;;;21.60;52.30;;;;;;5071929;28;20555;-65
2024/03/22 03:27:52;;;;;;;4.40;2.90;;;21.70;52.90;;;;;;5072072;28;20096;-65
2024/03/22 03:30:18;;;;;;;3.72;2.85;;;21.70;52.40;;;;;;5071757;28;20024;-64
2024/03/22 03:32:44;;;;;;;3.75;2.92;;;21.70;52.40;;;;;;5071773;28;20053;-64
2024/03/22 03:35:09;;;;;;;4.28;3.08;;;21.60;52.30;;;;;;5071972;28;20031;-64
2024/03/22 03:37:35;;;;;;;4.03;3.20;;;21.60;52.40;;;;;;5070666;28;20476;-64
2024/03/22 03:40:01;;;;;;;4.03;3.10;;;21.60;52.30;;;;;;5061211;28;20030;-64
2024/03/22 03:42:26;;;;;;;4.47;2.92;;;21.60;52.40;;;;;;5071145;28;20024;-65
2024/03/22 03:44:52;;;;;;;3.83;3.15;;;21.60;52.30;;;;;;5071513;28;20032;-64
2024/03/22 03:47:18;;;;;;;3.78;2.72;;;21.60;52.30;;;;;;5071549;28;20063;-65
2024/03/22 03:49:45;;;;;;;4.35;3.10;;;21.60;52.30;;;;;;5071565;28;20021;-64
2024/03/22 03:52:11;;;;;;;3.90;2.90;;;21.60;52.40;;;;;;5071359;28;20472;-64
2024/03/22 03:54:37;;;;;;;3.85;2.95;;;21.60;52.40;;;;;;5070254;28;20048;-66
2024/03/22 03:57:02;;;;;;;3.70;2.78;;;21.60;52.40;;;;;;5071481;28;20115;-66
2024/03/22 03:59:29;;;;;;;3.67;2.80;;;21.60;52.40;;;;;;5070971;28;20032;-66
2024/03/22 04:01:55;;;;;;;3.78;2.97;;;21.60;52.40;;;;;;5071313;28;20055;-66
2024/03/22 04:04:20;;;;;;;4.38;3.08;;;21.60;52.40;;;;;;5071343;28;20452;-66
2024/03/22 04:06:46;;;;;;;4.50;3.25;;;21.60;52.40;;;;;;5071301;28;20020;-66
2024/03/22 04:09:12;;;;;;;4.07;2.85;;;21.60;52.40;;;;;;5069955;28;20030;-65
2024/03/22 04:11:38;;;;;;;3.95;2.95;;;21.60;52.40;;;;;;5071132;28;20047;-66
2024/03/22 04:14:05;;;;;;;4.03;2.95;;;21.50;52.40;;;;;;5070824;28;20411;-66
2024/03/22 04:16:30;;;;;;;3.72;2.70;;;21.60;52.50;;;;;;5070467;28;20029;-66
2024/03/22 04:18:56;;;;;;;4.18;2.97;;;21.50;52.40;;;;;;5071158;28;20479;-66
2024/03/22 04:21:22;;;;;;;4.18;2.85;;;21.50;52.90;;;;;;5070856;28;20032;-66
2024/03/22 04:23:47;;;;;;;3.83;2.70;;;21.50;52.40;;;;;;5068009;28;20085;-66
2024/03/22 04:26:14;;;;;;;4.53;2.65;;;21.50;52.40;;;;;;5070101;28;20100;-66
2024/03/22 04:28:39;;;;;;;4.15;2.65;;;21.50;52.90;;;;;;5070615;28;20020;-66
2024/03/22 04:31:09;;;;;;;4.07;2.88;;;21.50;52.40;;;;;;5070672;28;20029;-66
2024/03/22 04:33:36;;;;;;;4.00;2.78;;;21.50;52.40;;;;;;5070287;28;20032;-66
2024/03/22 04:36:02;;;;;;;4.07;3.10;;;21.50;52.40;;;;;;5070335;28;20484;-66
2024/03/22 04:38:29;;;;;;;4.03;3.03;;;21.50;52.40;;;;;;5069582;28;20027;-66
2024/03/22 04:40:56;;;;;;;3.80;2.60;;;21.50;52.40;;;;;;5070497;28;20115;-65
2024/03/22 04:43:23;;;;;;;3.83;2.80;;;21.50;52.40;;;;;;5070044;28;20013;-66
2024/03/22 04:45:50;;;;;;;3.80;2.80;;;21.50;52.50;;;;;;5070736;28;20020;-65
2024/03/22 04:48:21;;;;;;;4.43;2.80;;;21.50;52.50;;;;;;5070224;28;20017;-65
2024/03/22 04:50:49;;;;;;;3.63;2.50;;;21.50;52.50;;;;;;5070201;28;20056;-66
2024/03/22 04:53:21;;;;;;;4.43;2.90;;;21.50;52.50;;;;;;5068118;28;20030;-66
2024/03/22 04:55:47;;;;;;;3.47;2.70;;;21.50;53.00;;;;;;5070499;28;20278;-64
2024/03/22 04:58:17;;;;;;;3.47;2.67;;;21.50;52.50;;;;;;5070203;28;20025;-64
2024/03/22 05:00:43;;;;;;;3.72;2.78;;;21.50;52.50;;;;;;5052189;28;20987;-65
2024/03/22 05:03:09;;;;;;;4.03;2.78;;;21.50;52.50;;;;;;5070331;28;20025;-65
2024/03/22 05:05:35;;;;;;;3.65;2.60;;;21.50;52.50;;;;;;5052471;28;20484;-66
2024/03/22 05:08:01;;;;;;;3.75;2.70;;;21.40;52.50;;;;;;5069145;28;20438;-66
2024/03/22 05:10:28;;;;;;;3.40;2.47;;;21.50;52.50;;;;;;5069952;28;20380;-65
2024/03/22 05:12:57;;;;;;;3.67;2.55;;;21.40;52.70;;;;;;5069455;28;20029;-65
2024/03/22 05:15:25;;;;;;;3.53;2.40;;;21.40;52.40;;;;;;5069545;28;20104;-65
2024/03/22 05:17:51;;;;;;;4.32;3.00;;;21.40;52.50;;;;;;5070218;28;20033;-66
2024/03/22 05:20:17;;;;;;;3.67;2.65;;;21.40;53.00;;;;;;5070003;28;20044;-65
2024/03/22 05:22:42;;;;;;;4.50;2.60;;;21.40;52.50;;;;;;5070036;28;20357;-65
2024/03/22 05:25:09;;;;;;;3.47;2.50;;;21.40;52.50;;;;;;5068938;28;20028;-65
2024/03/22 05:27:35;;;;;;;4.07;2.45;;;21.40;52.50;;;;;;5070003;28;20420;-65
2024/03/22 05:30:01;;;;;;;3.63;2.42;;;21.40;53.00;;;;;;5059335;28;20062;-65
2024/03/22 05:32:27;;;;;;;3.78;2.65;;;21.40;52.50;;;;;;5070023;28;20115;-65
2024/03/22 05:34:53;;;;;;;5.18;2.60;;;21.40;52.50;;;;;;5069718;28;20052;-64
2024/03/22 05:37:18;;;;;;;3.38;2.40;;;21.40;52.50;;;;;;5070001;28;20511;-65
2024/03/22 05:39:44;;;;;;;4.32;2.67;;;21.40;52.50;;;;;;5068991;28;20060;-65
2024/03/22 05:42:10;;;;;;;3.30;2.40;;;21.40;52.50;;;;;;5069635;28;20021;-65
2024/03/22 05:44:35;;;;;;;3.72;2.45;;;21.40;52.50;;;;;;5069521;28;20020;-65
2024/03/22 05:47:01;;;;;;;3.80;2.60;;;21.40;52.50;;;;;;5069770;28;20020;-66
2024/03/22 05:49:27;;;;;;;2.85;2.17;;;21.40;52.50;;;;;;5069762;28;20060;-65
2024/03/22 05:51:53;;;;;;;3.17;2.40;;;21.40;52.50;;;;;;5069695;28;20025;-65
2024/03/22 05:54:20;;;;;;;3.55;2.70;;;21.40;52.50;;;;;;5068379;28;20024;-66
2024/03/22 05:56:45;;;;;;;3.67;2.40;;;21.40;52.50;;;;;;5069526;28;20495;-66
2024/03/22 05:59:11;;;;;;;3.60;2.60;;;21.40;52.50;;;;;;5069431;28;20028;-65
2024/03/22 06:01:38;;;;;;;3.70;2.50;;;21.40;53.00;;;;;;5069557;28;20531;-66
2024/03/22 06:04:04;;;;;;;3.65;2.45;;;21.40;52.50;;;;;;5069856;28;20330;-66
2024/03/22 06:06:30;;;;;;;3.80;2.50;;;21.40;52.50;;;;;;5073223;28;20115;-66
2024/03/22 06:08:57;;;;;;;3.35;2.20;;;21.40;53.10;;;;;;5072413;28;20446;-66
2024/03/22 06:11:22;;;;;;;4.63;2.60;;;21.40;52.50;;;;;;5055306;28;20120;-65
2024/03/22 06:13:48;;;;;;;3.25;2.42;;;21.40;52.60;;;;;;5072939;28;20115;-67
2024/03/22 06:16:15;;;;;;;4.20;2.35;;;21.40;52.60;;;;;;5073306;28;20025;-67
2024/03/22 06:18:40;;;;;;;3.33;2.30;;;21.40;52.70;;;;;;5073171;28;20024;-68
2024/03/22 06:21:06;;;;;;;3.70;2.28;;;21.40;52.70;;;;;;5073078;28;20028;-67
2024/03/22 06:23:32;;;;;;;3.85;2.38;;;21.40;52.80;;;;;;5072280;28;20025;-67
2024/03/22 06:25:59;;;;;;;3.95;2.30;;;21.40;52.80;;;;;;5073222;28;20032;-64
2024/03/22 06:28:27;;;;;;;3.70;2.42;;;21.40;52.90;;;;;;5072984;28;20526;-64
2024/03/22 06:30:53;;;;;;;4.53;1.92;;;21.30;53.00;;;;;;5072558;28;20484;-63
2024/03/22 06:33:20;;;;;;;3.15;2.10;;;21.30;53.00;;;;;;5072827;28;20464;-64
2024/03/22 06:35:46;;;;;;;3.45;2.00;;;21.40;53.50;;;;;;5073296;28;20033;-68
2024/03/22 06:38:12;;;;;;;2.90;1.88;;;21.30;52.90;;;;;;5072711;28;20036;-68
2024/03/22 06:40:38;;;;;;;3.00;1.98;;;21.40;53.00;;;;;;5071367;28;20545;-68
2024/03/22 06:43:04;;;;;;;3.10;2.00;;;21.30;52.90;;;;;;5072926;28;20052;-68
2024/03/22 06:45:29;;;;;;;3.63;2.10;;;21.30;52.90;;;;;;5072474;28;20499;-68
2024/03/22 06:47:55;;;;;;;3.67;2.05;;;21.30;53.00;;;;;;5072715;28;20021;-67
2024/03/22 06:50:29;;;;;;;3.00;1.83;;;21.40;53.30;;;;;;5072747;28;20028;-68
2024/03/22 06:52:55;;;;;;;2.88;1.83;;;21.40;53.90;;;;;;5072624;28;20115;-68
2024/03/22 06:55:21;;;;;;;2.58;1.70;;;21.30;53.30;;;;;;5071737;28;20103;-68
2024/03/22 06:57:48;;;;;;;2.95;1.92;;;21.30;53.20;;;;;;5054278;28;20032;-67
2024/03/22 07:00:14;;;;;;;3.08;1.85;;;21.30;53.20;;;;;;5071500;28;20621;-68
2024/03/22 07:02:40;;;;;;;3.35;2.10;;;21.30;53.10;;;;;;5072636;28;20021;-68
2024/03/22 07:05:07;;;;;;;2.53;1.73;;;21.30;53.10;;;;;;5072384;28;20036;-68
2024/03/22 07:07:33;;;;;;;2.97;1.90;;;21.30;53.10;;;;;;5072290;28;20104;-68
2024/03/22 07:09:59;;;;;;;3.05;1.95;;;21.30;53.10;;;;;;5071044;28;20121;-67
2024/03/22 07:12:24;;;;;;;3.25;1.98;;;21.30;53.10;;;;;;5072283;28;20473;-68
2024/03/22 07:14:50;;;;;;;3.20;2.17;;;21.40;53.10;;;;;;5072694;28;20123;-66
2024/03/22 07:17:16;;;;;;;2.42;1.80;;;21.30;53.10;;;;;;5070682;28;20060;-66
2024/03/22 07:19:42;;;;;;;3.60;1.90;;;21.30;53.10;;;;;;5072089;28;20052;-66
2024/03/22 07:22:08;;;;;;;2.50;1.70;;;21.30;53.10;;;;;;5072106;28;20103;-66
2024/03/22 07:24:33;;;;;;;2.92;1.83;;;21.30;53.10;;;;;;5071036;28;20092;-66
2024/03/22 07:26:59;;;;;;;3.17;2.10;;;21.30;53.20;;;;;;5072045;28;20046;-65
2024/03/22 07:29:25;;;;;;;4.60;2.20;;;21.30;53.20;;;;;;5071338;28;20020;-65
2024/03/22 07:31:50;;;;;;;3.03;2.08;;;21.30;53.30;;;;;;5071903;28;20078;-66
2024/03/22 07:34:16;;;;;;;3.38;2.00;;;21.30;53.30;;;;;;5071879;28;20454;-65
2024/03/22 07:36:41;;;;;;;3.75;2.33;;;21.30;53.30;;;;;;5071910;28;20060;-65
2024/03/22 07:39:07;;;;;;;3.30;1.90;;;21.30;53.40;;;;;;5070633;28;20045;-66
2024/03/22 07:41:34;;;;;;;3.25;2.08;;;21.30;53.40;;;;;;5071761;28;20380;-66
2024/03/22 07:44:00;;;;;;;3.75;2.00;;;21.30;53.40;;;;;;5071814;28;20138;-65
2024/03/22 07:46:26;;;;;;;4.28;2.40;;;21.30;53.40;;;;;;5071386;28;20468;-65
2024/03/22 07:48:52;;;;;;;3.70;2.15;;;21.30;53.40;;;;;;5071603;28;20103;-66
2024/03/22 07:51:19;;;;;;;4.03;2.40;;;21.30;53.50;;;;;;5071632;28;20062;-65
2024/03/22 07:53:44;;;;;;;4.00;2.25;;;21.30;53.50;;;;;;5070974;28;20044;-65
2024/03/22 07:56:10;;;;;;;3.40;2.13;;;21.30;53.50;;;;;;5070208;28;20483;-66
2024/03/22 07:58:36;;;;;;;3.40;2.08;;;21.30;54.10;;;;;;5071383;28;20024;-65
2024/03/22 08:01:02;;;;;;;3.45;2.00;;;21.30;53.60;;;;;;5071102;28;20055;-66
2024/03/22 08:03:27;;;;;;;3.20;1.98;;;21.30;53.60;;;;;;5071605;28;20364;-65
2024/03/22 08:05:53;;;;;;;3.28;2.05;;;21.30;53.60;;;;;;5071363;28;20341;-65
2024/03/22 08:08:19;;;;;;;3.72;2.28;;;21.30;53.60;;;;;;5070910;28;20059;-66
2024/03/22 08:10:44;;;;;;;2.75;2.05;;;21.30;53.60;;;;;;5070509;28;20025;-65
2024/03/22 08:13:11;;;;;;;3.33;2.00;;;21.30;53.60;;;;;;5071112;28;20035;-66
2024/03/22 08:15:36;;;;;;;4.00;2.22;;;21.30;53.60;;;;;;5070730;28;20020;-66
2024/03/22 08:18:02;;;;;;;2.95;2.10;;;21.30;53.60;;;;;;5071030;28;20119;-66
2024/03/22 08:20:28;;;;;;;3.10;2.13;;;21.30;53.60;;;;;;5071004;28;20061;-66
2024/03/22 08:22:53;;;;;;;3.55;1.98;;;21.30;53.60;;;;;;5070984;28;20100;-66
2024/03/22 08:25:20;;;;;;;3.10;2.20;;;21.30;53.70;;;;;;5070023;28;20027;-64
2024/03/22 08:27:47;;;;;;;3.55;2.10;;;21.30;53.60;;;;;;5070684;28;20031;-65
2024/03/22 08:30:13;;;;;;;2.95;1.77;;;21.30;53.60;;;;;;5070222;28;20024;-64
2024/03/22 08:32:38;;;;;;;3.28;1.88;;;21.30;53.60;;;;;;5070676;28;20086;-64
2024/03/22 08:35:04;;;;;;;3.50;1.77;;;21.30;53.60;;;;;;5070795;28;20036;-64
2024/03/22 08:37:31;;;;;;;3.38;2.03;;;21.30;53.60;;;;;;5070287;28;20060;-64
2024/03/22 08:39:57;;;;;;;3.40;2.28;;;21.30;53.60;;;;;;5069450;28;20060;-64
2024/03/22 08:42:22;;;;;;;3.55;2.00;;;21.30;53.50;;;;;;5070684;28;20052;-65
2024/03/22 08:44:48;;;;;;;3.28;1.95;;;21.30;53.60;;;;;;5070609;28;20035;-64
2024/03/22 08:47:14;;;;;;;4.20;2.00;;;21.30;54.10;;;;;;5069527;28;20020;-64
2024/03/22 08:49:41;;;;;;;3.53;2.15;;;21.30;53.50;;;;;;5070548;28;20039;-65
2024/03/22 08:52:07;;;;;;;2.83;1.92;;;21.30;53.60;;;;;;5070501;28;20044;-64
2024/03/22 08:54:34;;;;;;;3.33;1.83;;;21.30;53.50;;;;;;5070341;28;20063;-67
2024/03/22 08:56:59;;;;;;;4.35;2.13;;;21.30;53.50;;;;;;5069702;28;20024;-66
2024/03/22 08:59:26;;;;;;;3.00;1.90;;;21.30;53.50;;;;;;5070543;28;20032;-65
2024/03/22 09:01:52;;;;;;;3.75;2.03;;;21.20;53.40;;;;;;5058214;28;20111;-65
2024/03/22 09:04:17;;;;;;;3.42;1.90;;;21.30;53.50;;;;;;5070462;28;20143;-66
2024/03/22 09:06:43;;;;;;;2.88;1.83;;;21.20;53.40;;;;;;5070287;28;20400;-65
2024/03/22 09:09:09;;;;;;;2.90;1.75;;;21.30;53.50;;;;;;5070009;28;20025;-66
2024/03/22 09:11:34;;;;;;;2.60;1.83;;;21.30;54.00;;;;;;5069265;28;20047;-66
2024/03/22 09:14:00;;;;;;;3.30;2.20;;;21.30;53.50;;;;;;5070052;28;20456;-66
2024/03/22 09:16:25;;;;;;;2.85;1.90;;;21.30;53.40;;;;;;5069589;28;20027;-66
2024/03/22 09:18:51;;;;;;;3.20;2.05;;;21.30;53.50;;;;;;5070155;28;20036;-66
2024/03/22 09:21:17;;;;;;;3.28;1.80;;;21.20;53.40;;;;;;5070003;28;20058;-66
2024/03/22 09:23:42;;;;;;;2.53;1.73;;;21.20;53.40;;;;;;5070148;28;20043;-66
2024/03/22 09:26:08;;;;;;;2.97;1.90;;;21.20;53.40;;;;;;5069121;28;20047;-66
2024/03/22 09:28:33;;;;;;;3.17;1.80;;;21.20;53.40;;;;;;5069890;28;20151;-65
2024/03/22 09:31:05;;;;;;;3.03;1.80;;;21.30;53.40;;;;;;5069655;28;20052;-66
2024/03/22 09:33:32;;;;;;;2.80;1.80;;;21.20;53.40;;;;;;5069909;28;20032;-69
2024/03/22 09:35:58;;;;;;;3.00;1.90;;;21.30;53.40;;;;;;5070083;28;20059;-65
2024/03/22 09:38:23;;;;;;;2.63;1.92;;;21.30;53.40;;;;;;5069854;28;20059;-65
2024/03/22 09:40:54;;;;;;;3.50;1.77;;;21.20;53.40;;;;;;5070040;28;20032;-65
2024/03/22 09:43:20;;;;;;;3.83;2.22;;;21.20;53.40;;;;;;5073818;28;20020;-65
2024/03/22 09:45:48;;;;;;;2.58;1.70;;;21.30;53.40;;;;;;5073630;28;20029;-65
2024/03/22 09:48:14;;;;;;;2.55;1.80;;;21.30;53.40;;;;;;5073856;28;20065;-65
2024/03/22 09:50:41;;;;;;;2.78;1.80;;;21.20;53.30;;;;;;5073868;28;20064;-65
2024/03/22 09:53:07;;;;;;;2.80;1.90;;;21.20;53.40;;;;;;5073258;28;20025;-65
2024/03/22 09:55:36;;;;;;;3.20;1.95;;;21.30;53.40;;;;;;5072473;28;20498;-65
2024/03/22 09:58:02;;;;;;;2.65;1.88;;;21.30;53.40;;;;;;5073937;28;20050;-65
2024/03/22 10:00:28;;;;;;;2.67;1.55;;;21.20;53.40;;;;;;5073480;28;20082;-66
2024/03/22 10:02:54;;;;;;;2.80;1.80;;;21.20;53.30;;;;;;5073365;28;20442;-65
2024/03/22 10:05:20;;;;;;;3.47;2.20;;;21.20;53.40;;;;;;5072411;28;20531;-66
2024/03/22 10:07:46;;;;;;;3.15;1.95;;;21.30;53.40;;;;;;5073640;28;20024;-66
2024/03/22 10:10:12;;;;;;;3.10;1.88;;;21.30;53.40;;;;;;5072367;28;20025;-66
2024/03/22 10:12:39;;;;;;;2.45;1.65;;;21.20;53.40;;;;;;5073278;28;20035;-65
2024/03/22 10:15:08;;;;;;;2.88;1.95;;;21.20;53.40;;;;;;5073361;28;20034;-65
2024/03/22 10:17:35;;;;;;;3.83;1.90;;;21.30;53.40;;;;;;5072943;28;20033;-66
2024/03/22 10:20:00;;;;;;;4.63;1.70;;;21.30;53.40;;;;;;5073279;28;20438;-65
2024/03/22 10:22:26;;;;;;;2.58;1.73;;;21.20;53.30;;;;;;5073547;28;20032;-65
2024/03/22 10:24:53;;;;;;;2.53;1.70;;;21.30;53.40;;;;;;5073145;28;20035;-65
2024/03/22 10:27:19;;;;;;;2.70;1.80;;;21.20;53.30;;;;;;5070958;28;20016;-66
2024/03/22 10:29:46;;;;;;;2.95;1.83;;;21.30;53.90;;;;;;5073271;28;20025;-66
2024/03/22 10:32:12;;;;;;;2.55;1.73;;;21.30;54.00;;;;;;5073019;28;20013;-65
2024/03/22 10:34:41;;;;;;;2.30;1.70;;;21.30;53.40;;;;;;5055155;28;20032;-66
2024/03/22 10:37:09;;;;;;;3.10;1.80;;;21.30;53.40;;;;;;5072973;28;20522;-66
2024/03/22 10:39:37;;;;;;;2.90;1.92;;;21.30;53.40;;;;;;5072940;28;20104;-66
2024/03/22 10:42:02;;;;;;;3.03;1.95;;;21.30;53.40;;;;;;5071671;28;20369;-65
2024/03/22 10:44:28;;;;;;;2.75;1.70;;;21.30;53.40;;;;;;5072884;28;20031;-66
2024/03/22 10:46:59;;;;;;;2.85;1.60;;;21.30;53.40;;;;;;5072206;28;20059;-66
2024/03/22 10:49:26;;;;;;;2.85;1.60;;;21.30;54.00;;;;;;5054317;28;20127;-66
2024/03/22 10:52:00;;;;;;;2.33;1.55;;;21.30;53.60;;;;;;5072439;28;20024;-66
2024/03/22 10:54:32;;;;;;;2.83;1.80;;;21.30;53.60;;;;;;5054275;28;20028;-69
2024/03/22 10:56:58;;;;;;;3.03;1.70;;;21.30;53.70;;;;;;5071531;28;20034;-68
2024/03/22 10:59:23;;;;;;;2.80;1.80;;;21.30;53.80;;;;;;5072339;28;20119;-68
2024/03/22 11:01:50;;;;;;;3.00;1.75;;;21.30;53.80;;;;;;5072153;28;20025;-69
2024/03/22 11:04:17;;;;;;;2.90;1.80;;;21.30;53.80;;;;;;5072627;28;20372;-64
2024/03/22 11:06:50;;;;;;;2.63;1.55;;;21.30;53.80;;;;;;5072500;28;20013;-65
2024/03/22 11:09:23;;;;;;;2.35;1.60;;;21.30;53.90;;;;;;5054289;28;20016;-65
2024/03/22 11:11:51;;;;;;;2.35;1.60;;;21.30;54.00;;;;;;5052895;28;20032;-65
2024/03/22 11:14:17;;;;;;;2.40;1.60;;;21.40;54.50;;;;;;5071340;28;20105;-65
2024/03/22 11:16:46;;;;;;;2.60;1.65;;;21.40;54.00;;;;;;5071889;28;20743;-65
2024/03/22 11:19:12;;;;;;;2.40;1.58;;;21.40;54.00;;;;;;5071985;28;20084;-65
2024/03/22 11:21:38;;;;;;;2.65;1.73;;;21.40;54.10;;;;;;5071848;28;20032;-64
2024/03/22 11:24:05;;;;;;;3.22;1.90;;;21.40;54.10;;;;;;5072098;28;20112;-66
2024/03/22 11:26:31;;;;;;;3.00;1.75;;;21.40;54.00;;;;;;5070762;28;20028;-65
2024/03/22 11:28:58;;;;;;;2.88;1.75;;;21.40;54.00;;;;;;5071993;28;20387;-65
2024/03/22 11:31:27;;;;;;;2.78;1.60;;;21.40;54.00;;;;;;5071698;28;20043;-64
2024/03/22 11:33:53;;;;;;;3.00;1.80;;;21.40;54.00;;;;;;5071855;28;20364;-65
2024/03/22 11:36:19;;;;;;;2.67;1.85;;;21.40;54.10;;;;;;5071477;28;20032;-64
2024/03/22 11:38:44;;;;;;;2.47;1.60;;;21.40;54.50;;;;;;5071629;28;20115;-65
2024/03/22 11:41:11;;;;;;;3.03;1.60;;;21.40;54.00;;;;;;5070573;28;20117;-65
2024/03/22 11:43:38;;;;;;;3.47;1.80;;;21.40;54.00;;;;;;5071677;28;20036;-64
2024/03/22 11:46:03;;;;;;;2.40;1.65;;;21.50;54.10;;;;;;5071571;28;20029;-65
2024/03/22 11:48:29;;;;;;;2.47;1.70;;;21.50;54.10;;;;;;5071398;28;20032;-65
2024/03/22 11:50:55;;;;;;;2.65;1.70;;;21.50;54.00;;;;;;5071667;28;20020;-65
2024/03/22 11:53:21;;;;;;;4.20;1.80;;;21.50;54.00;;;;;;5071506;28;20056;-65
2024/03/22 11:55:49;;;;;;;2.28;1.52;;;21.50;54.00;;;;;;5071514;28;20056;-64
2024/03/22 11:58:17;;;;;;;2.35;1.65;;;21.50;54.00;;;;;;5070183;28;20033;-64
2024/03/22 12:00:44;;;;;;;2.72;1.75;;;21.50;54.00;;;;;;5071337;28;20028;-65
2024/03/22 12:03:10;;;;;;;2.90;1.70;;;21.50;54.00;;;;;;5070176;28;20103;-64
2024/03/22 12:05:35;;;;;;;2.97;1.77;;;21.50;54.10;;;;;;5071233;28;20441;-64
2024/03/22 12:08:02;;;;;;;2.53;1.67;;;21.50;54.00;;;;;;5071516;28;20055;-65
2024/03/22 12:10:27;;;;;;;2.55;1.60;;;21.50;54.00;;;;;;5071636;28;20048;-64
2024/03/22 12:12:53;;;;;;;2.60;1.63;;;21.50;54.00;;;;;;5069336;28;20067;-65
2024/03/22 12:15:19;;;;;;;3.08;1.63;;;21.50;54.00;;;;;;5071122;28;20040;-68
2024/03/22 12:17:45;;;;;;;3.92;1.75;;;21.50;54.00;;;;;;5070692;28;20028;-69
2024/03/22 12:20:11;;;;;;;2.42;1.70;;;21.50;54.00;;;;;;5071016;28;20055;-69
2024/03/22 12:22:36;;;;;;;2.00;1.60;;;21.60;54.10;;;;;;5070986;28;20066;-68
2024/03/22 12:25:04;;;;;;;2.30;1.75;;;21.50;54.10;;;;;;5071072;28;20028;-68
2024/03/22 12:27:30;;;;;;;2.70;1.60;;;21.60;54.20;;;;;;5069798;28;20028;-68
2024/03/22 12:29:55;;;;;;;2.42;1.58;;;21.60;54.70;;;;;;5052932;28;20051;-69
2024/03/22 12:32:21;;;;;;;2.40;1.60;;;21.60;54.20;;;;;;5070399;28;20372;-69
2024/03/22 12:34:46;;;;;;;2.45;1.60;;;21.60;54.20;;;;;;5070968;28;20044;-69
2024/03/22 12:37:12;;;;;;;2.33;1.58;;;21.60;54.20;;;;;;5070680;28;20063;-68
2024/03/22 12:39:39;;;;;;;2.63;1.63;;;21.60;54.30;;;;;;5070318;28;20082;-69
2024/03/22 12:42:05;;;;;;;2.05;1.50;;;21.60;54.30;;;;;;5069413;28;20027;-69